Time;durP1;ratioP1;P1;durP2;ratioP2;P2;SDS_P1;SDS_P2;PMS_P1;PMS_P2;Temp;Humidity;BMP_temperature;BMP_pressure;BME280_temperature;BME280_humidity;BME280_pressure;Samples;Min_cycle;Max_cycle;Signal;HPM_P1;HPM_P2
2024/04/16 00:01:36;;;;;;;4.07;3.77;;;5.00;99.90;;;;;;5449937;26;20204;-69
2024/04/16 00:04:02;;;;;;;4.03;3.63;;;5.00;99.90;;;;;;5449734;26;20237;-69
2024/04/16 00:06:28;;;;;;;5.10;4.10;;;5.00;99.90;;;;;;5449503;26;20270;-71
2024/04/16 00:08:53;;;;;;;5.13;4.10;;;5.10;99.90;;;;;;5450936;26;20271;-69
2024/04/16 00:11:19;;;;;;;5.00;3.70;;;5.20;99.90;;;;;;5420962;26;20690;-71
2024/04/16 00:13:44;;;;;;;7.83;3.90;;;5.40;99.90;;;;;;5453293;26;20337;-70
2024/04/16 00:16:10;;;;;;;6.90;4.30;;;5.40;99.90;;;;;;5453062;26;20306;-70
2024/04/16 00:18:36;;;;;;;4.13;3.83;;;5.60;99.90;;;;;;5453105;26;20216;-70
2024/04/16 00:21:01;;;;;;;4.43;4.07;;;5.60;99.90;;;;;;5453013;26;20261;-70
2024/04/16 00:23:27;;;;;;;3.90;3.50;;;5.70;99.90;;;;;;5453272;26;20315;-70
2024/04/16 00:25:54;;;;;;;3.70;3.50;;;5.70;99.90;;;;;;5453043;26;20218;-70
2024/04/16 00:28:19;;;;;;;5.53;3.70;;;5.80;99.90;;;;;;5452368;26;20279;-69
2024/04/16 00:30:45;;;;;;;4.30;3.60;;;5.80;99.90;;;;;;5453020;26;20242;-69
2024/04/16 00:33:10;;;;;;;3.53;3.27;;;5.80;99.90;;;;;;5453020;26;20207;-70
2024/04/16 00:35:36;;;;;;;3.47;3.20;;;5.80;99.90;;;;;;5453116;26;20280;-70
2024/04/16 00:38:02;;;;;;;6.60;4.03;;;5.80;99.90;;;;;;5452651;26;20670;-70
2024/04/16 00:40:27;;;;;;;4.23;3.63;;;5.70;99.90;;;;;;5452789;26;20631;-70
2024/04/16 00:42:53;;;;;;;5.87;3.70;;;5.70;99.90;;;;;;5452717;26;20282;-70
2024/04/16 00:45:18;;;;;;;4.43;3.60;;;5.70;99.90;;;;;;5453579;26;20203;-70
2024/04/16 00:47:44;;;;;;;8.57;3.73;;;5.70;99.90;;;;;;5452994;26;20203;-71
2024/04/16 00:50:12;;;;;;;3.60;3.40;;;5.70;99.90;;;;;;5452586;26;20254;-69
2024/04/16 00:52:38;;;;;;;6.40;3.43;;;5.70;99.90;;;;;;5453600;26;20323;-69
2024/04/16 00:55:05;;;;;;;4.43;3.97;;;5.70;99.90;;;;;;5421443;26;20718;-69
2024/04/16 00:57:32;;;;;;;7.67;3.93;;;5.80;99.90;;;;;;5452788;26;20219;-69
2024/04/16 00:59:58;;;;;;;6.93;4.03;;;5.80;99.90;;;;;;5452080;26;20211;-69
2024/04/16 01:02:24;;;;;;;3.87;3.57;;;5.80;99.90;;;;;;5452417;26;20632;-70
2024/04/16 01:04:50;;;;;;;4.77;4.07;;;5.80;99.90;;;;;;5452725;26;20211;-70
2024/04/16 01:07:16;;;;;;;4.23;3.93;;;5.70;99.90;;;;;;5452826;26;20203;-70
2024/04/16 01:09:41;;;;;;;6.53;3.90;;;5.70;99.90;;;;;;5451974;26;20223;-69
2024/04/16 01:12:07;;;;;;;5.00;4.07;;;5.70;99.90;;;;;;5452794;26;20207;-71
2024/04/16 01:14:33;;;;;;;4.70;3.93;;;5.60;99.90;;;;;;5452806;26;20253;-69
2024/04/16 01:16:58;;;;;;;5.37;3.57;;;5.60;99.90;;;;;;5420634;26;20235;-70
2024/04/16 01:19:24;;;;;;;7.87;3.80;;;5.50;99.90;;;;;;5451534;26;20218;-70
2024/04/16 01:21:50;;;;;;;13.97;3.93;;;5.50;99.90;;;;;;5452656;26;20806;-69
2024/04/16 01:24:16;;;;;;;4.17;3.50;;;5.40;99.90;;;;;;5452531;26;20257;-70
2024/04/16 01:26:42;;;;;;;5.10;4.40;;;5.40;99.90;;;;;;5453392;26;20203;-70
2024/04/16 01:29:08;;;;;;;14.10;5.10;;;5.40;99.90;;;;;;5451982;26;20683;-69
2024/04/16 01:31:34;;;;;;;9.77;4.87;;;5.40;99.90;;;;;;5452657;26;20635;-69
2024/04/16 01:33:59;;;;;;;6.73;4.57;;;5.40;99.90;;;;;;5451928;26;20219;-70
2024/04/16 01:36:25;;;;;;;9.27;4.30;;;5.40;99.90;;;;;;5451748;26;20575;-69
2024/04/16 01:38:51;;;;;;;6.00;4.33;;;5.40;99.90;;;;;;5451351;26;20809;-70
2024/04/16 01:41:17;;;;;;;5.27;4.40;;;5.40;99.90;;;;;;5450797;26;20323;-70
2024/04/16 01:43:43;;;;;;;4.93;3.60;;;5.40;99.90;;;;;;5451454;26;20316;-70
2024/04/16 01:46:09;;;;;;;4.17;3.87;;;5.50;99.90;;;;;;5451430;26;20678;-71
2024/04/16 01:48:35;;;;;;;10.03;4.13;;;5.60;99.90;;;;;;5450947;26;20223;-70
2024/04/16 01:51:01;;;;;;;4.77;3.80;;;5.70;99.90;;;;;;5451256;26;20219;-73
2024/04/16 01:53:27;;;;;;;7.27;3.70;;;5.70;99.90;;;;;;5450853;26;20223;-70
2024/04/16 01:55:52;;;;;;;7.90;4.00;;;5.80;99.90;;;;;;5451191;26;20211;-70
2024/04/16 01:58:18;;;;;;;6.03;3.80;;;5.80;99.90;;;;;;5450072;26;20717;-69
2024/04/16 02:00:44;;;;;;;4.17;3.80;;;5.80;99.90;;;;;;5451351;26;20208;-70
2024/04/16 02:03:09;;;;;;;5.97;3.93;;;5.70;99.90;;;;;;5450961;26;20211;-69
2024/04/16 02:05:38;;;;;;;4.70;3.80;;;5.60;99.90;;;;;;5450983;26;20577;-71
2024/04/16 02:08:04;;;;;;;5.63;4.07;;;5.60;99.90;;;;;;5450647;26;20223;-69
2024/04/16 02:10:29;;;;;;;3.70;3.40;;;5.50;99.90;;;;;;5451772;26;20234;-71
2024/04/16 02:12:55;;;;;;;3.97;3.67;;;5.50;99.90;;;;;;5451714;26;20216;-70
2024/04/16 02:15:20;;;;;;;6.37;4.00;;;5.50;99.90;;;;;;5451899;26;20215;-70
2024/04/16 02:17:46;;;;;;;4.20;3.80;;;5.40;99.90;;;;;;5451623;26;20606;-70
2024/04/16 02:20:12;;;;;;;4.53;3.60;;;5.40;99.90;;;;;;5452346;26;20203;-69
2024/04/16 02:22:37;;;;;;;5.50;3.77;;;5.40;99.90;;;;;;5452593;26;20207;-69
2024/04/16 02:25:05;;;;;;;4.50;3.80;;;5.40;99.90;;;;;;5451801;26;20267;-70
2024/04/16 02:27:30;;;;;;;6.47;4.73;;;5.40;99.90;;;;;;5451951;26;20207;-70
2024/04/16 02:29:56;;;;;;;6.80;3.97;;;5.40;99.90;;;;;;5451245;26;20207;-70
2024/04/16 02:32:23;;;;;;;4.00;3.57;;;5.30;99.90;;;;;;5450596;26;20254;-69
2024/04/16 02:34:49;;;;;;;6.00;4.43;;;5.30;99.90;;;;;;5451697;26;20211;-71
2024/04/16 02:37:14;;;;;;;7.40;3.90;;;5.30;99.90;;;;;;5451443;26;20254;-70
2024/04/16 02:39:40;;;;;;;8.53;4.10;;;5.30;99.90;;;;;;5450851;26;20219;-69
2024/04/16 02:42:05;;;;;;;6.30;4.03;;;5.30;99.90;;;;;;5451399;26;20249;-70
2024/04/16 02:44:31;;;;;;;6.03;4.40;;;5.30;99.90;;;;;;5449766;26;20551;-70
2024/04/16 02:46:56;;;;;;;6.77;4.33;;;5.40;99.90;;;;;;5449466;26;20203;-70
2024/04/16 02:49:22;;;;;;;4.73;4.33;;;5.40;99.90;;;;;;5448813;26;20219;-69
2024/04/16 02:51:48;;;;;;;4.27;3.57;;;5.50;99.90;;;;;;5450816;26;20208;-70
2024/04/16 02:54:13;;;;;;;7.00;4.13;;;5.50;99.90;;;;;;5451350;26;20688;-70
2024/04/16 02:56:39;;;;;;;7.07;4.07;;;5.50;99.90;;;;;;5451343;26;20207;-71
2024/04/16 02:59:04;;;;;;;8.23;4.43;;;5.60;99.90;;;;;;5450874;26;20227;-69
2024/04/16 03:01:31;;;;;;;4.43;3.93;;;5.60;99.90;;;;;;5451061;26;20760;-70
2024/04/16 03:03:57;;;;;;;5.50;4.03;;;5.70;99.90;;;;;;5451596;26;20212;-70
2024/04/16 03:06:23;;;;;;;5.50;3.80;;;5.80;99.90;;;;;;5451898;26;20256;-70
2024/04/16 03:08:51;;;;;;;6.87;4.17;;;5.80;99.90;;;;;;5451134;26;20281;-71
2024/04/16 03:11:17;;;;;;;4.83;3.87;;;5.90;99.90;;;;;;5450968;26;20207;-70
2024/04/16 03:13:44;;;;;;;6.37;3.70;;;5.90;99.90;;;;;;5451150;26;20270;-73
2024/04/16 03:16:10;;;;;;;8.20;4.10;;;5.90;99.90;;;;;;5450798;26;20594;-70
2024/04/16 03:18:36;;;;;;;7.20;4.60;;;5.80;99.90;;;;;;5450667;26;20279;-73
2024/04/16 03:21:02;;;;;;;4.70;4.20;;;5.80;99.90;;;;;;5450588;26;20330;-73
2024/04/16 03:23:27;;;;;;;4.63;3.90;;;5.80;99.90;;;;;;5450894;26;20301;-70
2024/04/16 03:25:53;;;;;;;6.03;4.27;;;5.80;99.90;;;;;;5450788;26;20258;-70
2024/04/16 03:28:19;;;;;;;6.07;4.20;;;5.80;99.90;;;;;;5450005;26;20335;-70
2024/04/16 03:30:44;;;;;;;7.67;4.70;;;5.80;99.90;;;;;;5450883;26;20596;-72
2024/04/16 03:33:10;;;;;;;8.13;4.00;;;5.80;99.90;;;;;;5450842;26;20199;-70
2024/04/16 03:35:35;;;;;;;7.03;4.07;;;5.80;99.90;;;;;;5450554;26;20266;-71
2024/04/16 03:38:01;;;;;;;7.67;4.07;;;5.80;99.90;;;;;;5450520;26;20316;-70
2024/04/16 03:40:27;;;;;;;13.53;5.33;;;5.80;99.90;;;;;;5450463;26;20307;-69
2024/04/16 03:42:53;;;;;;;8.03;4.83;;;5.70;99.90;;;;;;5450404;26;20774;-70
2024/04/16 03:45:19;;;;;;;5.57;4.50;;;5.70;99.90;;;;;;5454099;26;20203;-70
2024/04/16 03:47:45;;;;;;;7.90;4.60;;;5.60;99.90;;;;;;5453245;26;20227;-71
2024/04/16 03:50:11;;;;;;;7.20;4.67;;;5.60;99.90;;;;;;5421791;26;20219;-70
2024/04/16 03:52:37;;;;;;;4.90;4.40;;;5.60;99.90;;;;;;5454179;26;20283;-70
2024/04/16 03:55:05;;;;;;;5.47;4.83;;;5.60;99.90;;;;;;5454125;26;20219;-71
2024/04/16 03:57:30;;;;;;;5.17;4.77;;;5.60;99.90;;;;;;5454297;26;20544;-70
2024/04/16 04:02:28;;;;;;;5.93;4.27;;;5.40;99.90;;;;;;5453425;26;20220;-71
2024/04/16 04:04:54;;;;;;;5.90;4.57;;;5.40;99.90;;;;;;5453641;26;20299;-70
2024/04/16 04:07:20;;;;;;;9.33;4.30;;;5.40;99.90;;;;;;5453206;26;20922;-71
2024/04/16 04:09:47;;;;;;;8.00;4.70;;;5.30;99.90;;;;;;5452906;26;20319;-71
2024/04/16 04:12:13;;;;;;;11.07;5.03;;;5.30;99.90;;;;;;5453687;26;20245;-71
2024/04/16 04:14:38;;;;;;;11.23;5.27;;;5.30;99.90;;;;;;5453548;26;20603;-71
2024/04/16 04:17:04;;;;;;;13.83;5.63;;;5.30;99.90;;;;;;5453180;26;20219;-70
2024/04/16 04:19:30;;;;;;;8.87;5.43;;;5.30;99.90;;;;;;5452756;26;20682;-71
2024/04/16 04:21:55;;;;;;;5.60;5.00;;;5.30;99.90;;;;;;5453680;26;20207;-70
2024/04/16 04:24:21;;;;;;;6.67;5.27;;;5.30;99.90;;;;;;5453499;26;20298;-71
2024/04/16 04:26:46;;;;;;;9.33;6.20;;;5.30;99.90;;;;;;5453526;26;20222;-70
2024/04/16 04:29:12;;;;;;;13.03;6.07;;;5.40;99.90;;;;;;5452856;26;20219;-70
2024/04/16 04:31:38;;;;;;;10.33;5.00;;;5.40;99.90;;;;;;5453216;26;20274;-70
2024/04/16 04:34:03;;;;;;;6.80;5.00;;;5.50;99.90;;;;;;5452723;26;20257;-71
2024/04/16 04:36:29;;;;;;;5.97;4.73;;;5.50;99.90;;;;;;5452659;26;20749;-71
2024/04/16 04:38:55;;;;;;;6.67;4.77;;;5.50;99.90;;;;;;5452483;26;20323;-71
2024/04/16 04:41:20;;;;;;;8.07;4.20;;;5.50;99.90;;;;;;5452366;26;20218;-71
2024/04/16 04:43:49;;;;;;;9.43;5.17;;;5.40;99.90;;;;;;5451881;26;20653;-72
2024/04/16 04:46:15;;;;;;;6.53;5.17;;;5.40;99.90;;;;;;5420794;26;20553;-70
2024/04/16 04:48:40;;;;;;;8.03;5.47;;;5.40;99.90;;;;;;5451928;26;20270;-71
2024/04/16 04:51:06;;;;;;;9.23;5.63;;;5.40;99.90;;;;;;5452873;26;20649;-70
2024/04/16 04:53:31;;;;;;;5.90;5.40;;;5.40;99.90;;;;;;5452573;26;20204;-71
2024/04/16 04:55:57;;;;;;;6.90;4.90;;;5.40;99.90;;;;;;5451854;26;20211;-70
2024/04/16 04:58:23;;;;;;;7.10;5.63;;;5.40;99.90;;;;;;5451493;26;20561;-71
2024/04/16 05:00:48;;;;;;;7.13;5.33;;;5.50;99.90;;;;;;5452389;26;20211;-71
2024/04/16 05:03:14;;;;;;;7.43;5.53;;;5.50;99.90;;;;;;5452145;26;20211;-71
2024/04/16 05:05:43;;;;;;;6.13;5.30;;;5.50;99.90;;;;;;5452097;26;20211;-69
2024/04/16 05:08:09;;;;;;;7.43;5.37;;;5.50;99.90;;;;;;5451907;26;20235;-70
2024/04/16 05:10:34;;;;;;;5.77;5.17;;;5.50;99.90;;;;;;5451668;26;20246;-71
2024/04/16 05:13:00;;;;;;;9.53;4.90;;;5.40;99.90;;;;;;5451910;26;20625;-72
2024/04/16 05:15:25;;;;;;;7.30;5.60;;;5.40;99.90;;;;;;5452497;26;20211;-71
2024/04/16 05:17:51;;;;;;;5.30;4.80;;;5.40;99.90;;;;;;5452451;26;20223;-74
2024/04/16 05:20:17;;;;;;;5.77;4.87;;;5.50;99.90;;;;;;5452313;26;20215;-71
2024/04/16 05:22:45;;;;;;;9.43;5.13;;;5.50;99.90;;;;;;5452070;26;20270;-71
2024/04/16 05:25:11;;;;;;;7.17;5.10;;;5.50;99.90;;;;;;5450667;26;20293;-71
2024/04/16 05:27:37;;;;;;;6.57;5.33;;;5.60;99.90;;;;;;5451783;26;20211;-72
2024/04/16 05:30:04;;;;;;;5.97;5.47;;;5.70;99.90;;;;;;5451845;26;20211;-70
2024/04/16 05:32:30;;;;;;;5.70;5.17;;;5.70;99.90;;;;;;5452510;26;20323;-71
2024/04/16 05:34:55;;;;;;;9.03;5.57;;;5.80;99.90;;;;;;5452130;26;20223;-70
2024/04/16 05:37:21;;;;;;;6.47;5.10;;;5.90;99.90;;;;;;5452101;26;20215;-71
2024/04/16 05:39:46;;;;;;;5.20;4.80;;;6.00;99.90;;;;;;5451331;26;20223;-70
2024/04/16 05:42:12;;;;;;;5.33;4.87;;;6.00;99.90;;;;;;5452673;26;20226;-71
2024/04/16 05:44:38;;;;;;;7.53;4.90;;;6.00;99.90;;;;;;5452899;26;20219;-70
2024/04/16 05:47:04;;;;;;;7.90;4.90;;;6.00;99.90;;;;;;5453172;26;20279;-70
2024/04/16 05:49:30;;;;;;;10.03;5.23;;;6.10;99.90;;;;;;5450019;26;20698;-70
2024/04/16 05:51:57;;;;;;;7.87;5.10;;;6.10;99.90;;;;;;5448138;26;20265;-70
2024/04/16 05:54:24;;;;;;;9.03;4.73;;;6.20;99.90;;;;;;5453263;26;20231;-70
2024/04/16 05:56:50;;;;;;;10.37;4.90;;;6.20;99.90;;;;;;5453783;26;20327;-70
2024/04/16 05:59:16;;;;;;;5.37;4.87;;;6.30;99.90;;;;;;5452308;26;20270;-70
2024/04/16 06:01:41;;;;;;;7.27;5.00;;;6.40;99.90;;;;;;5451833;26;20560;-73
2024/04/16 06:04:07;;;;;;;5.13;4.60;;;6.40;99.90;;;;;;5449164;26;20324;-72
2024/04/16 06:06:32;;;;;;;6.70;4.20;;;6.40;99.90;;;;;;5450102;26;20254;-72
2024/04/16 06:08:58;;;;;;;7.50;4.47;;;6.40;99.90;;;;;;5451733;26;20633;-71
2024/04/16 06:11:24;;;;;;;5.47;4.93;;;6.50;99.90;;;;;;5450739;26;20223;-72
2024/04/16 06:13:50;;;;;;;5.00;3.80;;;6.50;99.90;;;;;;5451209;26;20211;-71
2024/04/16 06:16:15;;;;;;;7.40;4.60;;;6.50;99.90;;;;;;5451455;26;20450;-71
2024/04/16 06:18:42;;;;;;;6.77;4.60;;;6.50;99.90;;;;;;5419113;26;20234;-71
2024/04/16 06:21:08;;;;;;;6.63;4.57;;;6.60;99.90;;;;;;5450789;26;20234;-71
2024/04/16 06:23:33;;;;;;;6.53;4.67;;;6.60;99.90;;;;;;5451425;26;20203;-71
2024/04/16 06:26:05;;;;;;;7.50;5.03;;;6.60;99.90;;;;;;5451303;26;20687;-71
2024/04/16 06:28:31;;;;;;;6.00;4.73;;;6.50;99.90;;;;;;5450758;26;20254;-71
2024/04/16 06:30:57;;;;;;;6.47;5.97;;;6.50;99.90;;;;;;5450880;26;20203;-71
2024/04/16 06:33:22;;;;;;;7.83;4.77;;;6.50;99.90;;;;;;5450897;26;20312;-71
2024/04/16 06:35:48;;;;;;;7.10;4.93;;;6.40;99.90;;;;;;5442860;26;20228;-71
2024/04/16 06:38:14;;;;;;;11.80;5.33;;;6.40;99.90;;;;;;5414851;26;20262;-73
2024/04/16 06:40:39;;;;;;;5.57;4.40;;;6.30;99.90;;;;;;5414878;26;20204;-72
2024/04/16 06:43:05;;;;;;;9.93;4.50;;;6.30;99.90;;;;;;5415517;26;20250;-71
2024/04/16 06:45:30;;;;;;;5.97;4.53;;;6.20;99.90;;;;;;5414865;26;20280;-71
2024/04/16 06:47:56;;;;;;;5.40;4.90;;;6.20;99.90;;;;;;5383681;26;20629;-72
2024/04/16 06:50:22;;;;;;;6.50;5.20;;;6.10;99.90;;;;;;5423837;26;20227;-71
2024/04/16 06:52:47;;;;;;;6.97;4.40;;;6.10;99.90;;;;;;5451125;26;20261;-72
2024/04/16 06:55:13;;;;;;;8.70;5.80;;;6.00;99.90;;;;;;5451310;26;20258;-71
2024/04/16 06:57:38;;;;;;;7.60;6.10;;;6.00;99.90;;;;;;5451233;26;20211;-72
2024/04/16 07:00:04;;;;;;;6.17;5.10;;;5.90;99.90;;;;;;5451137;26;20308;-71
2024/04/16 07:02:30;;;;;;;8.90;5.10;;;5.90;99.90;;;;;;5451113;26;20207;-71
2024/04/16 07:04:56;;;;;;;5.63;5.07;;;5.90;99.90;;;;;;5450855;26;20269;-73
2024/04/16 07:07:21;;;;;;;5.80;5.20;;;5.90;99.90;;;;;;5451531;26;20237;-73
2024/04/16 07:09:47;;;;;;;5.50;4.90;;;5.90;99.90;;;;;;5449741;26;20223;-73
2024/04/16 07:12:12;;;;;;;11.63;5.17;;;5.80;99.90;;;;;;5451068;26;20211;-75
2024/04/16 07:14:38;;;;;;;6.33;5.10;;;5.80;99.90;;;;;;5447934;26;20702;-74
2024/04/16 07:17:04;;;;;;;6.97;5.47;;;5.80;99.90;;;;;;5450814;26;20254;-74
2024/04/16 07:19:29;;;;;;;4.87;4.50;;;5.70;99.90;;;;;;5450200;26;20313;-73
2024/04/16 07:21:55;;;;;;;4.57;4.27;;;5.70;99.90;;;;;;5450678;26;20313;-73
2024/04/16 07:24:21;;;;;;;6.90;4.70;;;5.70;99.90;;;;;;5450705;26;20296;-73
2024/04/16 07:26:46;;;;;;;4.90;4.60;;;5.70;99.90;;;;;;5450513;26;20701;-75
2024/04/16 07:29:12;;;;;;;6.50;6.00;;;5.70;99.90;;;;;;5450481;26;20223;-73
2024/04/16 07:31:38;;;;;;;4.60;4.30;;;5.70;99.90;;;;;;5450865;26;20235;-72
2024/04/16 07:34:03;;;;;;;4.47;4.27;;;5.80;99.90;;;;;;5451522;26;20211;-74
2024/04/16 07:36:31;;;;;;;4.70;4.50;;;5.80;99.90;;;;;;5451606;26;20215;-74
2024/04/16 07:38:57;;;;;;;4.63;4.30;;;5.80;99.90;;;;;;5451584;26;20287;-74
2024/04/16 07:41:22;;;;;;;4.87;4.57;;;5.80;99.90;;;;;;5451757;26;20319;-75
2024/04/16 07:43:48;;;;;;;4.90;4.60;;;5.80;99.90;;;;;;5451562;26;20211;-73
2024/04/16 07:46:14;;;;;;;4.90;4.60;;;5.90;99.90;;;;;;5450908;26;20215;-75
2024/04/16 07:48:39;;;;;;;4.90;4.50;;;5.90;99.90;;;;;;5452196;26;20231;-74
2024/04/16 07:51:05;;;;;;;10.93;4.87;;;6.00;99.90;;;;;;5451250;26;20207;-74
2024/04/16 07:53:32;;;;;;;5.53;5.03;;;6.10;99.90;;;;;;5450151;26;20207;-74
2024/04/16 07:55:58;;;;;;;6.73;6.13;;;6.20;99.90;;;;;;5450543;26;20215;-75
2024/04/16 07:58:23;;;;;;;5.47;5.07;;;6.30;99.90;;;;;;5418296;26;20350;-74
2024/04/16 08:00:49;;;;;;;5.57;5.17;;;6.40;99.90;;;;;;5450440;26;20227;-74
2024/04/16 08:03:15;;;;;;;5.67;5.10;;;6.40;99.90;;;;;;5450090;26;20253;-75
2024/04/16 08:05:41;;;;;;;5.40;5.00;;;6.50;99.90;;;;;;5450466;26;20215;-74
2024/04/16 08:08:06;;;;;;;5.57;4.93;;;6.50;99.90;;;;;;5418119;26;20270;-74
2024/04/16 08:10:32;;;;;;;5.77;5.37;;;6.50;99.90;;;;;;5449116;26;20301;-74
2024/04/16 08:12:58;;;;;;;5.80;5.30;;;6.60;99.90;;;;;;5449709;26;20211;-73
2024/04/16 08:15:24;;;;;;;7.40;5.60;;;6.60;99.90;;;;;;5450046;26;20211;-74
2024/04/16 08:17:50;;;;;;;8.00;5.60;;;6.70;99.90;;;;;;5449650;26;20345;-74
2024/04/16 08:20:15;;;;;;;6.50;6.00;;;6.90;99.90;;;;;;5447053;26;20261;-74
2024/04/16 08:22:41;;;;;;;5.33;5.03;;;7.00;99.90;;;;;;5449817;26;20207;-73
2024/04/16 08:25:06;;;;;;;6.33;5.70;;;7.10;99.90;;;;;;5445214;26;20211;-75
2024/04/16 08:27:32;;;;;;;5.97;5.47;;;7.10;99.90;;;;;;5431194;26;20227;-72
2024/04/16 08:29:58;;;;;;;6.03;5.63;;;7.10;99.90;;;;;;5451297;26;20218;-72
2024/04/16 08:32:23;;;;;;;8.53;5.97;;;7.10;99.90;;;;;;5453244;26;20207;-73
2024/04/16 08:34:49;;;;;;;7.03;5.80;;;7.20;99.90;;;;;;5451360;26;20311;-73
2024/04/16 08:37:14;;;;;;;6.67;5.97;;;7.20;99.90;;;;;;5451559;26;20223;-73
2024/04/16 08:39:40;;;;;;;9.30;6.03;;;7.20;99.90;;;;;;5452855;26;20227;-73
2024/04/16 08:42:08;;;;;;;6.27;5.83;;;7.30;99.90;;;;;;5452998;26;20211;-73
2024/04/16 08:44:34;;;;;;;6.87;6.13;;;7.30;99.90;;;;;;5451500;26;20324;-72
2024/04/16 08:47:00;;;;;;;6.47;5.97;;;7.40;99.90;;;;;;5452972;26;20254;-75
2024/04/16 08:49:30;;;;;;;6.60;6.10;;;7.60;99.90;;;;;;5449782;26;20390;-73
2024/04/16 08:51:57;;;;;;;7.33;6.27;;;7.70;99.90;;;;;;5452664;26;20208;-73
2024/04/16 08:54:23;;;;;;;7.80;6.00;;;7.90;99.90;;;;;;5452658;26;20215;-75
2024/04/16 08:56:50;;;;;;;9.73;6.40;;;8.00;99.90;;;;;;5453338;26;20726;-74
2024/04/16 08:59:16;;;;;;;5.93;5.43;;;8.10;99.90;;;;;;5450576;26;20708;-73
2024/04/16 09:01:47;;;;;;;8.37;7.77;;;8.20;99.90;;;;;;5451975;26;20223;-74
2024/04/16 09:04:15;;;;;;;6.43;5.47;;;8.40;99.90;;;;;;5452586;26;20544;-74
2024/04/16 09:06:46;;;;;;;8.10;6.27;;;8.50;99.90;;;;;;5426037;26;20239;-73
2024/04/16 09:09:12;;;;;;;8.20;5.47;;;8.40;99.90;;;;;;5451639;26;20304;-72
2024/04/16 09:11:40;;;;;;;9.40;5.57;;;8.30;99.90;;;;;;5452300;26;20231;-73
2024/04/16 09:14:06;;;;;;;9.00;6.07;;;8.40;99.90;;;;;;5452173;26;20617;-73
2024/04/16 09:16:32;;;;;;;7.77;5.23;;;8.50;99.90;;;;;;5452109;26;20562;-73
2024/04/16 09:19:07;;;;;;;5.20;4.70;;;8.50;99.90;;;;;;5451952;26;20227;-73
2024/04/16 09:21:34;;;;;;;9.40;5.17;;;8.60;99.90;;;;;;5452065;26;20292;-75
2024/04/16 09:24:01;;;;;;;6.83;4.60;;;8.60;99.90;;;;;;5452731;26;20319;-74
2024/04/16 09:26:26;;;;;;;6.70;5.07;;;8.70;99.90;;;;;;5451744;26;20226;-73
2024/04/16 09:28:52;;;;;;;6.93;5.30;;;8.70;99.90;;;;;;5451785;26;20269;-73
2024/04/16 09:31:18;;;;;;;10.40;4.50;;;8.80;99.90;;;;;;5451948;26;20332;-73
2024/04/16 09:33:45;;;;;;;4.40;4.00;;;8.90;99.90;;;;;;5451994;26;20219;-73
2024/04/16 09:36:14;;;;;;;9.27;4.40;;;8.90;99.90;;;;;;5452281;26;20235;-74
2024/04/16 09:38:43;;;;;;;5.53;4.20;;;8.80;99.90;;;;;;5451908;26;20242;-73
2024/04/16 09:41:14;;;;;;;6.97;4.57;;;8.90;99.90;;;;;;5471929;26;20265;-73
2024/04/16 09:43:41;;;;;;;6.77;4.73;;;9.00;99.90;;;;;;5475766;26;20278;-73
2024/04/16 09:46:10;;;;;;;7.33;4.80;;;9.30;99.90;;;;;;5452340;26;20211;-73
2024/04/16 09:48:39;;;;;;;8.20;4.53;;;9.50;99.90;;;;;;5451987;26;20721;-74
2024/04/16 09:51:05;;;;;;;11.77;6.80;;;9.80;99.90;;;;;;5451581;26;20683;-72
2024/04/16 09:53:35;;;;;;;9.30;4.83;;;10.10;99.90;;;;;;5451932;26;20804;-73
2024/04/16 09:56:04;;;;;;;6.40;3.80;;;10.30;99.90;;;;;;5451517;26;20309;-75
2024/04/16 09:58:36;;;;;;;6.73;3.80;;;10.40;99.90;;;;;;5451740;26;20223;-72
2024/04/16 10:01:03;;;;;;;4.97;3.70;;;10.40;99.90;;;;;;5451934;26;20277;-74
2024/04/16 10:03:30;;;;;;;5.43;3.57;;;10.50;99.90;;;;;;5452125;26;20290;-74
2024/04/16 10:05:55;;;;;;;12.83;3.77;;;10.60;99.90;;;;;;5451482;26;20718;-75
2024/04/16 10:08:23;;;;;;;5.40;2.93;;;10.80;99.90;;;;;;5451597;26;20253;-75
2024/04/16 10:10:49;;;;;;;4.57;3.87;;;11.30;99.90;;;;;;5450841;26;20706;-75
2024/04/16 10:13:15;;;;;;;8.35;4.85;;;11.60;99.90;;;;;;5449863;26;20429;-73
2024/04/16 10:15:47;;;;;;;6.17;3.70;;;11.80;99.90;;;;;;5426404;26;20231;-75
2024/04/16 10:18:13;;;;;;;7.50;3.47;;;12.00;99.90;;;;;;5447847;26;20234;-74
2024/04/16 10:20:48;;;;;;;8.50;3.93;;;11.80;99.90;;;;;;5442341;26;20223;-76
2024/04/16 10:23:18;;;;;;;8.10;3.57;;;11.60;99.90;;;;;;5451492;26;20222;-76
2024/04/16 10:25:53;;;;;;;5.57;3.43;;;11.50;99.90;;;;;;5451143;26;20211;-73
2024/04/16 10:28:28;;;;;;;3.67;2.90;;;11.50;99.90;;;;;;5451245;26;20219;-74
2024/04/16 10:31:02;;;;;;;5.07;3.20;;;11.50;99.90;;;;;;5451270;26;20254;-73
2024/04/16 10:33:32;;;;;;;4.20;3.77;;;11.50;99.90;;;;;;5451003;26;20257;-74
2024/04/16 10:35:58;;;;;;;5.27;3.23;;;11.50;99.90;;;;;;5450851;26;20274;-74
2024/04/16 10:38:24;;;;;;;8.23;4.30;;;11.40;99.90;;;;;;5451062;26;20218;-74
2024/04/16 10:40:54;;;;;;;3.77;3.00;;;11.30;99.90;;;;;;5450707;26;20320;-74
2024/04/16 10:43:24;;;;;;;4.07;3.73;;;11.20;99.90;;;;;;5451239;26;20256;-75
2024/04/16 10:45:50;;;;;;;3.83;3.40;;;11.10;99.90;;;;;;5451259;26;20210;-75
2024/04/16 10:48:22;;;;;;;3.67;3.00;;;11.00;99.90;;;;;;5418652;26;20697;-72
2024/04/16 10:50:49;;;;;;;5.23;3.27;;;11.20;99.90;;;;;;5450675;26;20288;-74
2024/04/16 10:53:19;;;;;;;3.67;3.13;;;11.10;99.90;;;;;;5449908;26;20312;-75
2024/04/16 10:55:45;;;;;;;7.13;3.53;;;11.10;99.90;;;;;;5449608;26;20207;-74
2024/04/16 10:58:13;;;;;;;4.47;3.33;;;11.00;99.90;;;;;;5451129;26;20227;-74
2024/04/16 11:00:39;;;;;;;5.70;4.40;;;11.10;99.90;;;;;;5450537;26;20294;-73
2024/04/16 11:03:05;;;;;;;6.70;4.30;;;11.10;99.90;;;;;;5450565;26;20816;-73
2024/04/16 11:05:31;;;;;;;4.80;4.00;;;11.00;99.90;;;;;;5450921;26;20219;-73
2024/04/16 11:07:56;;;;;;;5.40;4.83;;;11.00;99.90;;;;;;5450665;26;20220;-73
2024/04/16 11:10:22;;;;;;;4.73;4.33;;;10.90;99.90;;;;;;5450683;26;20211;-74
2024/04/16 11:12:48;;;;;;;6.20;4.63;;;10.30;99.90;;;;;;5450839;26;20219;-75
2024/04/16 11:15:13;;;;;;;6.80;4.17;;;9.80;99.90;;;;;;5450467;26;20319;-75
2024/04/16 11:17:39;;;;;;;4.70;3.57;;;9.40;99.90;;;;;;5450552;26;20219;-74
2024/04/16 11:20:08;;;;;;;5.90;3.00;;;9.20;99.90;;;;;;5450566;26;20643;-75
2024/04/16 11:22:34;;;;;;;4.73;3.43;;;8.80;99.90;;;;;;5450844;26;20329;-74
2024/04/16 11:24:59;;;;;;;5.90;3.43;;;8.40;99.90;;;;;;5450157;26;20227;-74
2024/04/16 11:27:25;;;;;;;4.13;3.40;;;8.20;99.90;;;;;;5450944;26;20257;-74
2024/04/16 11:29:51;;;;;;;3.60;3.30;;;8.00;99.90;;;;;;5450403;26;20269;-73
2024/04/16 11:32:19;;;;;;;3.60;3.33;;;7.90;99.90;;;;;;5450829;26;20211;-73
2024/04/16 11:34:45;;;;;;;3.70;3.50;;;7.90;99.90;;;;;;5450402;26;20685;-75
2024/04/16 11:37:13;;;;;;;4.90;4.00;;;7.80;99.90;;;;;;5450707;26;20250;-74
2024/04/16 11:39:40;;;;;;;3.97;3.40;;;7.80;99.90;;;;;;5450284;26;20227;-74
2024/04/16 11:42:07;;;;;;;4.17;3.83;;;8.00;99.90;;;;;;5449949;26;20270;-74
2024/04/16 11:44:40;;;;;;;4.70;3.90;;;8.10;99.90;;;;;;5450463;26;20245;-74
2024/04/16 11:47:08;;;;;;;5.13;3.90;;;8.00;99.90;;;;;;5450702;26;20261;-74
2024/04/16 11:49:34;;;;;;;4.07;3.77;;;8.00;99.90;;;;;;5451165;26;20230;-74
2024/04/16 11:52:06;;;;;;;6.07;3.43;;;8.00;99.90;;;;;;5449699;26;20215;-74
2024/04/16 11:54:34;;;;;;;4.27;4.00;;;8.10;99.90;;;;;;5415907;26;20204;-75
2024/04/16 11:57:03;;;;;;;4.00;3.70;;;8.20;99.90;;;;;;5414319;26;20735;-74
2024/04/16 11:59:30;;;;;;;4.20;3.90;;;8.20;99.90;;;;;;5414285;26;20287;-74
2024/04/16 12:01:56;;;;;;;3.73;3.50;;;8.20;99.90;;;;;;5414388;26;20707;-73
2024/04/16 12:04:21;;;;;;;3.30;3.10;;;8.20;99.90;;;;;;5414992;26;20332;-72
2024/04/16 12:06:47;;;;;;;5.97;3.60;;;8.30;99.90;;;;;;5439632;26;20258;-73
2024/04/16 12:09:13;;;;;;;3.57;3.30;;;8.40;99.90;;;;;;5453512;26;20223;-73
2024/04/16 12:11:39;;;;;;;3.40;3.20;;;8.50;99.90;;;;;;5453908;26;20203;-73
2024/04/16 12:14:06;;;;;;;4.03;3.67;;;8.70;99.90;;;;;;5453449;26;20211;-73
2024/04/16 12:16:33;;;;;;;3.53;3.23;;;8.90;99.90;;;;;;5453579;26;20211;-73
2024/04/16 12:19:00;;;;;;;3.50;3.20;;;9.20;99.90;;;;;;5453307;26;20656;-73
2024/04/16 12:21:25;;;;;;;3.50;3.20;;;9.40;99.90;;;;;;5453429;26;20328;-73
2024/04/16 12:23:52;;;;;;;4.80;3.13;;;9.80;99.90;;;;;;5453166;26;20223;-74
2024/04/16 12:26:18;;;;;;;3.97;3.27;;;10.00;99.90;;;;;;5453204;26;20799;-74
2024/04/16 12:28:45;;;;;;;3.10;2.90;;;10.20;99.90;;;;;;5452799;26;20235;-73
2024/04/16 12:31:11;;;;;;;5.13;3.63;;;10.40;99.90;;;;;;5453219;26;20258;-74
2024/04/16 12:33:37;;;;;;;6.03;3.53;;;10.50;99.90;;;;;;5453378;26;20207;-74
2024/04/16 12:36:03;;;;;;;3.80;3.53;;;10.60;99.90;;;;;;5453092;26;20699;-74
2024/04/16 12:38:30;;;;;;;3.27;2.97;;;10.70;99.90;;;;;;5452522;26;20278;-74
2024/04/16 12:40:56;;;;;;;3.70;3.10;;;10.70;99.90;;;;;;5453197;26;20237;-73
2024/04/16 12:43:22;;;;;;;4.37;3.23;;;10.80;99.90;;;;;;5453308;26;20211;-73
2024/04/16 12:45:48;;;;;;;4.07;3.33;;;10.90;99.90;;;;;;5453463;26;20207;-73
2024/04/16 12:50:42;;;;;;;5.33;3.07;;;11.30;99.90;;;;;;5378184;26;20233;-75
2024/04/16 12:53:07;;;;;;;6.20;3.70;;;11.50;99.90;;;;;;5380743;26;20846;-75
2024/04/16 12:55:33;;;;;;;4.57;3.17;;;11.70;99.90;;;;;;5380781;26;20213;-74